Pilar Observatorio, Argentina

4:34 PM ART on September 04, 2015 (GMT -0300)
Ferreyra | | Change Station
CLOSE
Current Station
Personal Weather Station
Location: Cordoba, CORDOBA
Elevation: 1335 ft
Nearby Weather Stations

Elev 1335 ft 31.45 °S, 64.12 °W | Updated 4 minutes ago

Clear
Clear
69.2 °F
Feels Like 69.2 °F
N
5.0
Wind Variable Wind from WSW
Gusts 5.0 mph

Today
High -- | Low -- °F
--% Chance of Precip.
Yesterday
High -- | Low -- °F
Precip. -- in
7:28 AM 7:01 PM
Waning Gibbous, 57% visible
Pressure 30.21 in
Visibility -9999.0 miles
Clouds
Dew Point 46 °F
Humidity 43%
Rainfall 0.00 in
Snow Depth Not available.
UV Not available.
Pollen Not available.
Air Quality Not available.
Flu Activity Not available.
METAR SACO 041900Z 07014KT CAVOK 21/07 Q1023
Pressure 30.21 in
Visibility -9999.0 miles
Clouds
Dew Point 46 °F
Humidity 43%
Rainfall 0.00 in
Snow Depth Not available.
UV Not available.
Pollen Not available.
Air Quality Not available.
Flu Activity Not available.
METAR SACO 041900Z 07014KT CAVOK 21/07 Q1023

10-Day Weather Forecast

×

Almanac

Astronomy

Sep. 04, 2015 Rise Set
Actual Time
Civil Twilight
Nautical Twilight
Astronomical Twilight
Moon
Length of Visible Light
Length of Day
Tomorrow will be .
, % of the Moon is Illuminated

Today's Extremes

Country Highs Country Lows

Community

WunderPhotos

Upload Photos

1,852,273 photos uploaded!

WunderBlogs® & News

Nearby

Air Quality

  Air Quality AQ Index Pollutant
Not available.

Snow Depth

Station Depth Elevation

Earthquake Activity

City Distance Mag. Time & Date
Minimum magnitude displayed is 2.5.

Coastal Water Temperatures

Place Temperature

Stations

Nearby Weather Stations

Station Location Temp. Windchill Dew Point Humidity Wind Precip. Elev Updated Type